Trout Dale, Virginia
Current Conditions -  °F | °C
As of 12:15 AM on Saturday 20 Dec 2014 (Local Time) from KMKJ Reporting Station
Clear Clear  
Wind Chill: 30°   Ceiling: Unl
Heat Index: 30°   Visibility: 10mi
Dew Point: 24°   Wind: 0mph
Humidity: 78%   Direction: NA
Pressure: 30.17"   Gusts: NA
Location:  36.6855°N, 81.435°W
Report Text: KMKJ 200515Z AUTO 00000KT 10SM CLR M01/M05 A3017 RMK AO2 T10121046
Loading
Personal Weather Stations






























Interactive Weather Map New forecast layout! Learn more

10-Day Weather Forecast

Advertisements
Track Severe Weather on mobile